EKRD weather

Randers Airport
Randers, Central Jutland, Denmark

Public forecast

Using degrees Celsius for public forecast. Weather courtesy of forecast.io.

Closest aviation weather report (METAR) to Randers Airport

Closest report is Aarhus Airport, 23.0 nm (42.6 km) ESE. Retrieved 2019/10/21 06:20 UTC (5 minutes ago):

EKAH 210620Z AUTO 31001KT 4500NDV BR BKN014/// 08/08 Q1019

Closest aviation forecast (TAF) to Randers Airport

Closest forecast is Aarhus Airport, 23.0 nm (42.6 km) ESE. Retrieved 2019/10/21 06:30 UTC (0 seconds ago):

TAF EKAH 210517Z 2106/2206 06007KT 0300 FG VV001 TEMPO 2106/2109 3000 BR SCT002 BECMG 2109/2111 6000 NSW BKN015 TEMPO 2111/2201 3000 RADZ BR BKN004 BECMG 2201/2203 0100 FG VV001